sensor_id;sensor_type;location;lat;lon;timestamp;P1;durP1;ratioP1;P2;durP2;ratioP2
19026;SDS011;9646;52.034;5.554;2023-05-10T00:01:36;19.08;;;15.30;;
19026;SDS011;9646;52.034;5.554;2023-05-10T00:04:04;19.75;;;16.05;;
19026;SDS011;9646;52.034;5.554;2023-05-10T00:06:31;22.70;;;17.42;;
19026;SDS011;9646;52.034;5.554;2023-05-10T00:08:58;18.77;;;15.27;;
19026;SDS011;9646;52.034;5.554;2023-05-10T00:11:25;22.85;;;17.63;;
19026;SDS011;9646;52.034;5.554;2023-05-10T00:13:52;24.88;;;18.50;;
19026;SDS011;9646;52.034;5.554;2023-05-10T00:16:19;24.30;;;18.13;;
19026;SDS011;9646;52.034;5.554;2023-05-10T00:18:47;22.65;;;17.42;;
19026;SDS011;9646;52.034;5.554;2023-05-10T00:21:14;20.30;;;15.88;;
19026;SDS011;9646;52.034;5.554;2023-05-10T00:23:41;24.23;;;18.88;;
19026;SDS011;9646;52.034;5.554;2023-05-10T00:26:08;21.98;;;17.25;;
19026;SDS011;9646;52.034;5.554;2023-05-10T00:28:35;22.05;;;16.83;;
19026;SDS011;9646;52.034;5.554;2023-05-10T00:31:02;19.58;;;15.30;;
19026;SDS011;9646;52.034;5.554;2023-05-10T00:33:30;24.55;;;18.23;;
19026;SDS011;9646;52.034;5.554;2023-05-10T00:35:58;24.23;;;18.20;;
19026;SDS011;9646;52.034;5.554;2023-05-10T00:38:25;25.42;;;18.50;;
19026;SDS011;9646;52.034;5.554;2023-05-10T00:40:52;28.25;;;20.90;;
19026;SDS011;9646;52.034;5.554;2023-05-10T00:43:19;24.70;;;18.73;;
19026;SDS011;9646;52.034;5.554;2023-05-10T00:45:46;24.38;;;19.02;;
19026;SDS011;9646;52.034;5.554;2023-05-10T00:48:13;25.52;;;19.52;;
19026;SDS011;9646;52.034;5.554;2023-05-10T00:50:40;24.77;;;18.98;;
19026;SDS011;9646;52.034;5.554;2023-05-10T00:53:09;25.02;;;19.17;;
19026;SDS011;9646;52.034;5.554;2023-05-10T00:55:36;22.00;;;16.90;;
19026;SDS011;9646;52.034;5.554;2023-05-10T00:58:03;23.35;;;17.70;;
19026;SDS011;9646;52.034;5.554;2023-05-10T01:00:31;23.83;;;17.70;;
19026;SDS011;9646;52.034;5.554;2023-05-10T01:02:58;24.05;;;18.17;;
19026;SDS011;9646;52.034;5.554;2023-05-10T01:05:26;25.40;;;18.80;;
19026;SDS011;9646;52.034;5.554;2023-05-10T01:07:53;24.85;;;17.80;;
19026;SDS011;9646;52.034;5.554;2023-05-10T01:10:22;27.38;;;19.55;;
19026;SDS011;9646;52.034;5.554;2023-05-10T01:12:49;25.33;;;18.98;;
19026;SDS011;9646;52.034;5.554;2023-05-10T01:15:16;24.58;;;18.10;;
19026;SDS011;9646;52.034;5.554;2023-05-10T01:17:44;29.45;;;22.15;;
19026;SDS011;9646;52.034;5.554;2023-05-10T01:20:12;23.98;;;19.02;;
19026;SDS011;9646;52.034;5.554;2023-05-10T01:22:43;29.55;;;22.42;;
19026;SDS011;9646;52.034;5.554;2023-05-10T01:25:24;26.38;;;19.58;;
19026;SDS011;9646;52.034;5.554;2023-05-10T01:28:05;27.70;;;20.95;;
19026;SDS011;9646;52.034;5.554;2023-05-10T01:30:36;24.73;;;18.55;;
19026;SDS011;9646;52.034;5.554;2023-05-10T01:33:11;25.95;;;18.75;;
19026;SDS011;9646;52.034;5.554;2023-05-10T01:35:41;25.63;;;18.45;;
19026;SDS011;9646;52.034;5.554;2023-05-10T01:38:13;27.65;;;19.30;;
19026;SDS011;9646;52.034;5.554;2023-05-10T01:40:46;23.05;;;16.20;;
19026;SDS011;9646;52.034;5.554;2023-05-10T01:43:16;24.45;;;18.35;;
19026;SDS011;9646;52.034;5.554;2023-05-10T01:45:45;26.00;;;18.52;;
19026;SDS011;9646;52.034;5.554;2023-05-10T01:48:15;23.00;;;16.67;;
19026;SDS011;9646;52.034;5.554;2023-05-10T01:50:43;25.75;;;18.42;;
19026;SDS011;9646;52.034;5.554;2023-05-10T01:53:12;25.48;;;17.70;;
19026;SDS011;9646;52.034;5.554;2023-05-10T01:55:41;29.25;;;21.67;;
19026;SDS011;9646;52.034;5.554;2023-05-10T01:58:13;27.27;;;19.70;;
19026;SDS011;9646;52.034;5.554;2023-05-10T02:00:40;25.33;;;18.35;;
19026;SDS011;9646;52.034;5.554;2023-05-10T02:03:09;29.50;;;21.75;;
19026;SDS011;9646;52.034;5.554;2023-05-10T02:05:38;29.02;;;21.35;;
19026;SDS011;9646;52.034;5.554;2023-05-10T02:08:07;36.47;;;26.48;;
19026;SDS011;9646;52.034;5.554;2023-05-10T02:10:34;34.38;;;24.15;;
19026;SDS011;9646;52.034;5.554;2023-05-10T02:13:02;35.13;;;22.33;;
19026;SDS011;9646;52.034;5.554;2023-05-10T02:15:29;36.25;;;24.33;;
19026;SDS011;9646;52.034;5.554;2023-05-10T02:17:57;28.80;;;20.77;;
19026;SDS011;9646;52.034;5.554;2023-05-10T02:20:25;36.53;;;25.30;;
19026;SDS011;9646;52.034;5.554;2023-05-10T02:22:54;26.30;;;18.75;;
19026;SDS011;9646;52.034;5.554;2023-05-10T02:25:23;36.88;;;23.67;;
19026;SDS011;9646;52.034;5.554;2023-05-10T02:27:50;34.90;;;24.33;;
19026;SDS011;9646;52.034;5.554;2023-05-10T02:30:18;40.20;;;27.33;;
19026;SDS011;9646;52.034;5.554;2023-05-10T02:32:45;36.85;;;24.98;;
19026;SDS011;9646;52.034;5.554;2023-05-10T02:35:13;35.47;;;25.55;;
19026;SDS011;9646;52.034;5.554;2023-05-10T02:37:41;32.58;;;22.52;;
19026;SDS011;9646;52.034;5.554;2023-05-10T02:40:10;28.48;;;20.70;;
19026;SDS011;9646;52.034;5.554;2023-05-10T02:42:37;37.97;;;25.10;;
19026;SDS011;9646;52.034;5.554;2023-05-10T02:45:07;34.42;;;23.13;;
19026;SDS011;9646;52.034;5.554;2023-05-10T02:47:34;33.80;;;25.05;;
19026;SDS011;9646;52.034;5.554;2023-05-10T02:50:02;36.78;;;25.10;;
19026;SDS011;9646;52.034;5.554;2023-05-10T02:52:29;28.33;;;19.38;;
19026;SDS011;9646;52.034;5.554;2023-05-10T02:54:58;43.58;;;29.23;;
19026;SDS011;9646;52.034;5.554;2023-05-10T02:57:28;30.13;;;23.20;;
19026;SDS011;9646;52.034;5.554;2023-05-10T02:59:55;37.53;;;26.15;;
19026;SDS011;9646;52.034;5.554;2023-05-10T03:02:22;35.40;;;25.30;;
19026;SDS011;9646;52.034;5.554;2023-05-10T03:04:50;35.72;;;27.10;;
19026;SDS011;9646;52.034;5.554;2023-05-10T03:07:17;45.22;;;33.10;;
19026;SDS011;9646;52.034;5.554;2023-05-10T03:09:46;45.20;;;30.55;;
19026;SDS011;9646;52.034;5.554;2023-05-10T03:12:14;39.30;;;26.35;;
19026;SDS011;9646;52.034;5.554;2023-05-10T03:14:45;41.60;;;28.52;;
19026;SDS011;9646;52.034;5.554;2023-05-10T03:17:15;36.45;;;26.05;;
19026;SDS011;9646;52.034;5.554;2023-05-10T03:19:46;45.00;;;30.50;;
19026;SDS011;9646;52.034;5.554;2023-05-10T03:22:17;40.45;;;28.35;;
19026;SDS011;9646;52.034;5.554;2023-05-10T03:24:48;34.72;;;23.50;;
19026;SDS011;9646;52.034;5.554;2023-05-10T03:27:15;38.63;;;27.40;;
19026;SDS011;9646;52.034;5.554;2023-05-10T03:29:44;37.80;;;26.88;;
19026;SDS011;9646;52.034;5.554;2023-05-10T03:32:12;42.83;;;29.08;;
19026;SDS011;9646;52.034;5.554;2023-05-10T03:34:41;48.80;;;32.30;;
19026;SDS011;9646;52.034;5.554;2023-05-10T03:37:08;49.45;;;33.15;;
19026;SDS011;9646;52.034;5.554;2023-05-10T03:39:35;49.25;;;32.70;;
19026;SDS011;9646;52.034;5.554;2023-05-10T03:42:02;39.47;;;26.80;;
19026;SDS011;9646;52.034;5.554;2023-05-10T03:44:29;42.78;;;26.83;;
19026;SDS011;9646;52.034;5.554;2023-05-10T03:46:59;45.97;;;30.55;;
19026;SDS011;9646;52.034;5.554;2023-05-10T03:49:26;51.53;;;33.47;;
19026;SDS011;9646;52.034;5.554;2023-05-10T03:51:53;49.65;;;31.75;;
19026;SDS011;9646;52.034;5.554;2023-05-10T03:54:20;41.10;;;27.95;;
19026;SDS011;9646;52.034;5.554;2023-05-10T03:56:47;37.53;;;25.13;;
19026;SDS011;9646;52.034;5.554;2023-05-10T03:59:14;36.47;;;24.67;;
19026;SDS011;9646;52.034;5.554;2023-05-10T04:01:41;38.53;;;26.42;;
19026;SDS011;9646;52.034;5.554;2023-05-10T04:04:10;39.67;;;26.88;;
19026;SDS011;9646;52.034;5.554;2023-05-10T04:06:37;39.67;;;25.85;;
19026;SDS011;9646;52.034;5.554;2023-05-10T04:09:04;42.38;;;27.75;;
19026;SDS011;9646;52.034;5.554;2023-05-10T04:11:31;44.03;;;29.58;;
19026;SDS011;9646;52.034;5.554;2023-05-10T04:13:58;39.75;;;26.42;;
19026;SDS011;9646;52.034;5.554;2023-05-10T04:16:25;36.55;;;24.25;;
19026;SDS011;9646;52.034;5.554;2023-05-10T04:18:52;43.97;;;28.67;;
19026;SDS011;9646;52.034;5.554;2023-05-10T04:21:21;40.75;;;25.63;;
19026;SDS011;9646;52.034;5.554;2023-05-10T04:23:48;39.78;;;23.45;;
19026;SDS011;9646;52.034;5.554;2023-05-10T04:26:15;33.55;;;22.45;;
19026;SDS011;9646;52.034;5.554;2023-05-10T04:28:42;41.63;;;25.55;;
19026;SDS011;9646;52.034;5.554;2023-05-10T04:31:09;33.75;;;21.00;;
19026;SDS011;9646;52.034;5.554;2023-05-10T04:33:37;37.88;;;25.65;;
19026;SDS011;9646;52.034;5.554;2023-05-10T04:36:04;41.00;;;25.58;;
19026;SDS011;9646;52.034;5.554;2023-05-10T04:38:33;38.65;;;22.58;;
19026;SDS011;9646;52.034;5.554;2023-05-10T04:41:03;37.70;;;24.08;;
19026;SDS011;9646;52.034;5.554;2023-05-10T04:43:31;35.15;;;22.65;;
19026;SDS011;9646;52.034;5.554;2023-05-10T04:45:58;35.38;;;21.67;;
19026;SDS011;9646;52.034;5.554;2023-05-10T04:48:25;35.30;;;20.65;;
19026;SDS011;9646;52.034;5.554;2023-05-10T04:50:52;35.63;;;22.25;;
19026;SDS011;9646;52.034;5.554;2023-05-10T04:53:19;32.45;;;19.00;;
19026;SDS011;9646;52.034;5.554;2023-05-10T04:55:47;35.92;;;24.15;;
19026;SDS011;9646;52.034;5.554;2023-05-10T04:58:15;36.05;;;21.05;;
19026;SDS011;9646;52.034;5.554;2023-05-10T05:00:42;31.77;;;20.10;;
19026;SDS011;9646;52.034;5.554;2023-05-10T05:03:09;33.00;;;20.67;;
19026;SDS011;9646;52.034;5.554;2023-05-10T05:05:36;37.58;;;21.55;;
19026;SDS011;9646;52.034;5.554;2023-05-10T05:08:03;31.10;;;20.05;;
19026;SDS011;9646;52.034;5.554;2023-05-10T05:10:30;37.90;;;21.67;;
19026;SDS011;9646;52.034;5.554;2023-05-10T05:12:58;37.00;;;21.85;;
19026;SDS011;9646;52.034;5.554;2023-05-10T05:15:25;41.90;;;24.48;;
19026;SDS011;9646;52.034;5.554;2023-05-10T05:17:53;38.00;;;22.38;;
19026;SDS011;9646;52.034;5.554;2023-05-10T05:20:20;37.45;;;22.42;;
19026;SDS011;9646;52.034;5.554;2023-05-10T05:22:47;38.25;;;22.75;;
19026;SDS011;9646;52.034;5.554;2023-05-10T05:25:14;37.53;;;23.33;;
19026;SDS011;9646;52.034;5.554;2023-05-10T05:27:41;47.58;;;28.10;;
19026;SDS011;9646;52.034;5.554;2023-05-10T05:30:10;46.33;;;25.55;;
19026;SDS011;9646;52.034;5.554;2023-05-10T05:32:37;42.70;;;26.05;;
19026;SDS011;9646;52.034;5.554;2023-05-10T05:35:04;47.00;;;28.27;;
19026;SDS011;9646;52.034;5.554;2023-05-10T05:37:31;48.42;;;29.00;;
19026;SDS011;9646;52.034;5.554;2023-05-10T05:39:59;39.90;;;23.33;;
19026;SDS011;9646;52.034;5.554;2023-05-10T05:42:27;45.65;;;26.98;;
19026;SDS011;9646;52.034;5.554;2023-05-10T05:44:54;42.28;;;27.10;;
19026;SDS011;9646;52.034;5.554;2023-05-10T05:47:22;36.85;;;23.60;;
19026;SDS011;9646;52.034;5.554;2023-05-10T05:49:49;44.95;;;28.38;;
19026;SDS011;9646;52.034;5.554;2023-05-10T05:52:16;37.47;;;25.90;;
19026;SDS011;9646;52.034;5.554;2023-05-10T05:54:43;38.95;;;26.02;;
19026;SDS011;9646;52.034;5.554;2023-05-10T05:57:11;44.92;;;26.33;;
19026;SDS011;9646;52.034;5.554;2023-05-10T05:59:38;43.35;;;26.33;;
19026;SDS011;9646;52.034;5.554;2023-05-10T06:02:08;38.85;;;24.33;;
19026;SDS011;9646;52.034;5.554;2023-05-10T06:04:37;37.97;;;23.02;;
19026;SDS011;9646;52.034;5.554;2023-05-10T06:07:04;48.90;;;30.20;;
19026;SDS011;9646;52.034;5.554;2023-05-10T06:09:31;37.35;;;23.60;;
19026;SDS011;9646;52.034;5.554;2023-05-10T06:11:58;42.35;;;27.08;;
19026;SDS011;9646;52.034;5.554;2023-05-10T06:14:25;39.88;;;24.17;;
19026;SDS011;9646;52.034;5.554;2023-05-10T06:16:52;38.47;;;25.27;;
19026;SDS011;9646;52.034;5.554;2023-05-10T06:19:19;38.25;;;22.00;;
19026;SDS011;9646;52.034;5.554;2023-05-10T06:21:48;42.97;;;25.33;;
19026;SDS011;9646;52.034;5.554;2023-05-10T06:24:15;40.40;;;26.55;;
19026;SDS011;9646;52.034;5.554;2023-05-10T06:26:42;40.35;;;27.25;;
19026;SDS011;9646;52.034;5.554;2023-05-10T06:29:09;39.85;;;25.83;;
19026;SDS011;9646;52.034;5.554;2023-05-10T06:31:37;32.97;;;21.30;;
19026;SDS011;9646;52.034;5.554;2023-05-10T06:34:04;46.42;;;30.38;;
19026;SDS011;9646;52.034;5.554;2023-05-10T06:36:33;40.25;;;26.50;;
19026;SDS011;9646;52.034;5.554;2023-05-10T06:39:01;43.38;;;28.55;;
19026;SDS011;9646;52.034;5.554;2023-05-10T06:41:28;46.10;;;28.23;;
19026;SDS011;9646;52.034;5.554;2023-05-10T06:43:58;46.33;;;29.27;;
19026;SDS011;9646;52.034;5.554;2023-05-10T06:46:25;45.97;;;27.77;;
19026;SDS011;9646;52.034;5.554;2023-05-10T06:48:52;38.90;;;25.25;;
19026;SDS011;9646;52.034;5.554;2023-05-10T06:51:20;47.65;;;31.17;;
19026;SDS011;9646;52.034;5.554;2023-05-10T06:53:47;52.25;;;31.73;;
19026;SDS011;9646;52.034;5.554;2023-05-10T06:56:15;50.42;;;30.13;;
19026;SDS011;9646;52.034;5.554;2023-05-10T06:58:42;32.70;;;21.02;;
19026;SDS011;9646;52.034;5.554;2023-05-10T07:01:09;44.72;;;27.52;;
19026;SDS011;9646;52.034;5.554;2023-05-10T07:03:36;43.75;;;27.95;;
19026;SDS011;9646;52.034;5.554;2023-05-10T07:06:04;42.55;;;28.08;;
19026;SDS011;9646;52.034;5.554;2023-05-10T07:08:32;41.92;;;26.25;;
19026;SDS011;9646;52.034;5.554;2023-05-10T07:11:00;33.95;;;22.48;;
19026;SDS011;9646;52.034;5.554;2023-05-10T07:13:30;37.60;;;24.95;;
19026;SDS011;9646;52.034;5.554;2023-05-10T07:15:57;38.55;;;25.17;;
19026;SDS011;9646;52.034;5.554;2023-05-10T07:18:24;37.42;;;24.58;;
19026;SDS011;9646;52.034;5.554;2023-05-10T07:20:51;29.55;;;20.95;;
19026;SDS011;9646;52.034;5.554;2023-05-10T07:23:18;29.10;;;18.98;;
19026;SDS011;9646;52.034;5.554;2023-05-10T07:25:46;32.28;;;20.65;;
19026;SDS011;9646;52.034;5.554;2023-05-10T07:28:13;29.38;;;20.25;;
19026;SDS011;9646;52.034;5.554;2023-05-10T07:30:42;32.60;;;22.15;;
19026;SDS011;9646;52.034;5.554;2023-05-10T07:33:10;30.67;;;20.67;;
19026;SDS011;9646;52.034;5.554;2023-05-10T07:35:37;27.60;;;17.40;;
19026;SDS011;9646;52.034;5.554;2023-05-10T07:38:04;28.50;;;19.27;;
19026;SDS011;9646;52.034;5.554;2023-05-10T07:40:32;24.73;;;17.15;;
19026;SDS011;9646;52.034;5.554;2023-05-10T07:42:59;22.60;;;16.38;;
19026;SDS011;9646;52.034;5.554;2023-05-10T07:45:27;20.10;;;14.45;;
19026;SDS011;9646;52.034;5.554;2023-05-10T07:47:55;22.77;;;15.90;;
19026;SDS011;9646;52.034;5.554;2023-05-10T07:50:22;23.58;;;15.55;;
19026;SDS011;9646;52.034;5.554;2023-05-10T07:52:49;16.63;;;12.80;;
19026;SDS011;9646;52.034;5.554;2023-05-10T07:55:18;20.23;;;14.07;;
19026;SDS011;9646;52.034;5.554;2023-05-10T07:57:46;16.60;;;12.57;;
19026;SDS011;9646;52.034;5.554;2023-05-10T08:00:13;14.73;;;10.05;;
19026;SDS011;9646;52.034;5.554;2023-05-10T08:02:43;14.45;;;9.48;;
19026;SDS011;9646;52.034;5.554;2023-05-10T08:05:11;12.60;;;8.80;;
19026;SDS011;9646;52.034;5.554;2023-05-10T08:07:39;11.68;;;8.85;;
19026;SDS011;9646;52.034;5.554;2023-05-10T08:10:08;10.77;;;7.97;;
19026;SDS011;9646;52.034;5.554;2023-05-10T08:12:35;12.00;;;8.27;;
19026;SDS011;9646;52.034;5.554;2023-05-10T08:15:03;12.73;;;9.38;;
19026;SDS011;9646;52.034;5.554;2023-05-10T08:17:30;10.20;;;7.50;;
19026;SDS011;9646;52.034;5.554;2023-05-10T08:19:57;13.57;;;8.20;;
19026;SDS011;9646;52.034;5.554;2023-05-10T08:22:26;11.95;;;8.70;;
19026;SDS011;9646;52.034;5.554;2023-05-10T08:24:53;7.95;;;6.63;;
19026;SDS011;9646;52.034;5.554;2023-05-10T08:27:20;12.85;;;9.48;;
19026;SDS011;9646;52.034;5.554;2023-05-10T08:29:47;12.43;;;7.97;;
19026;SDS011;9646;52.034;5.554;2023-05-10T08:32:14;11.13;;;8.23;;
19026;SDS011;9646;52.034;5.554;2023-05-10T08:34:41;10.80;;;8.43;;
19026;SDS011;9646;52.034;5.554;2023-05-10T08:37:08;11.77;;;8.82;;
19026;SDS011;9646;52.034;5.554;2023-05-10T08:39:39;9.73;;;7.72;;
19026;SDS011;9646;52.034;5.554;2023-05-10T08:42:06;9.60;;;7.22;;
19026;SDS011;9646;52.034;5.554;2023-05-10T08:44:34;9.07;;;6.90;;
19026;SDS011;9646;52.034;5.554;2023-05-10T08:47:02;11.27;;;6.85;;
19026;SDS011;9646;52.034;5.554;2023-05-10T08:49:31;11.18;;;7.43;;
19026;SDS011;9646;52.034;5.554;2023-05-10T08:51:59;12.48;;;9.20;;
19026;SDS011;9646;52.034;5.554;2023-05-10T08:54:28;12.57;;;9.23;;
19026;SDS011;9646;52.034;5.554;2023-05-10T08:56:56;10.68;;;8.35;;
19026;SDS011;9646;52.034;5.554;2023-05-10T08:59:23;10.70;;;7.55;;
19026;SDS011;9646;52.034;5.554;2023-05-10T09:01:50;10.73;;;6.60;;
19026;SDS011;9646;52.034;5.554;2023-05-10T09:04:18;13.57;;;9.10;;
19026;SDS011;9646;52.034;5.554;2023-05-10T09:06:46;10.85;;;7.68;;
19026;SDS011;9646;52.034;5.554;2023-05-10T09:09:13;15.48;;;9.60;;
19026;SDS011;9646;52.034;5.554;2023-05-10T09:11:41;10.07;;;6.97;;
19026;SDS011;9646;52.034;5.554;2023-05-10T09:14:09;11.65;;;7.95;;
19026;SDS011;9646;52.034;5.554;2023-05-10T09:16:37;12.10;;;7.95;;
19026;SDS011;9646;52.034;5.554;2023-05-10T09:19:04;11.20;;;7.57;;
19026;SDS011;9646;52.034;5.554;2023-05-10T09:21:32;10.68;;;7.55;;
19026;SDS011;9646;52.034;5.554;2023-05-10T09:24:02;12.55;;;7.38;;
19026;SDS011;9646;52.034;5.554;2023-05-10T09:26:29;10.57;;;7.18;;
19026;SDS011;9646;52.034;5.554;2023-05-10T09:28:57;10.85;;;6.78;;
19026;SDS011;9646;52.034;5.554;2023-05-10T09:31:26;12.43;;;7.65;;
19026;SDS011;9646;52.034;5.554;2023-05-10T09:34:09;8.60;;;6.50;;
19026;SDS011;9646;52.034;5.554;2023-05-10T09:36:36;12.45;;;8.38;;
19026;SDS011;9646;52.034;5.554;2023-05-10T09:39:03;10.55;;;7.75;;
19026;SDS011;9646;52.034;5.554;2023-05-10T09:41:30;12.00;;;8.35;;
19026;SDS011;9646;52.034;5.554;2023-05-10T09:43:57;10.02;;;6.65;;
19026;SDS011;9646;52.034;5.554;2023-05-10T09:46:26;9.48;;;7.28;;
19026;SDS011;9646;52.034;5.554;2023-05-10T09:48:53;13.88;;;10.27;;
19026;SDS011;9646;52.034;5.554;2023-05-10T09:51:20;14.25;;;9.45;;
19026;SDS011;9646;52.034;5.554;2023-05-10T09:53:47;11.38;;;9.02;;
19026;SDS011;9646;52.034;5.554;2023-05-10T09:59:01;9.57;;;7.13;;
19026;SDS011;9646;52.034;5.554;2023-05-10T10:01:30;10.10;;;7.82;;
19026;SDS011;9646;52.034;5.554;2023-05-10T10:03:58;8.80;;;6.97;;
19026;SDS011;9646;52.034;5.554;2023-05-10T10:06:25;9.23;;;6.03;;
19026;SDS011;9646;52.034;5.554;2023-05-10T10:08:53;7.72;;;5.60;;
19026;SDS011;9646;52.034;5.554;2023-05-10T10:11:21;7.70;;;5.78;;
19026;SDS011;9646;52.034;5.554;2023-05-10T10:13:48;6.63;;;5.72;;
19026;SDS011;9646;52.034;5.554;2023-05-10T10:16:15;6.60;;;5.18;;
19026;SDS011;9646;52.034;5.554;2023-05-10T10:18:44;7.72;;;5.63;;
19026;SDS011;9646;52.034;5.554;2023-05-10T10:21:12;8.82;;;6.63;;
19026;SDS011;9646;52.034;5.554;2023-05-10T10:23:40;7.85;;;7.05;;
19026;SDS011;9646;52.034;5.554;2023-05-10T10:26:08;13.10;;;6.57;;
19026;SDS011;9646;52.034;5.554;2023-05-10T10:28:39;8.27;;;5.80;;
19026;SDS011;9646;52.034;5.554;2023-05-10T10:31:13;8.93;;;6.63;;
19026;SDS011;9646;52.034;5.554;2023-05-10T10:33:56;9.40;;;5.85;;
19026;SDS011;9646;52.034;5.554;2023-05-10T10:36:26;7.82;;;6.00;;
19026;SDS011;9646;52.034;5.554;2023-05-10T10:38:54;7.40;;;5.88;;
19026;SDS011;9646;52.034;5.554;2023-05-10T10:41:28;10.10;;;6.10;;
19026;SDS011;9646;52.034;5.554;2023-05-10T10:49:25;9.82;;;6.55;;
19026;SDS011;9646;52.034;5.554;2023-05-10T10:54:38;9.98;;;6.15;;
19026;SDS011;9646;52.034;5.554;2023-05-10T10:57:10;8.10;;;5.32;;
19026;SDS011;9646;52.034;5.554;2023-05-10T10:59:40;8.00;;;5.60;;
19026;SDS011;9646;52.034;5.554;2023-05-10T11:02:08;7.80;;;5.85;;
19026;SDS011;9646;52.034;5.554;2023-05-10T11:04:43;8.98;;;6.85;;
19026;SDS011;9646;52.034;5.554;2023-05-10T11:07:17;8.52;;;5.53;;
19026;SDS011;9646;52.034;5.554;2023-05-10T11:09:45;8.20;;;6.18;;
19026;SDS011;9646;52.034;5.554;2023-05-10T11:12:13;7.72;;;6.15;;
19026;SDS011;9646;52.034;5.554;2023-05-10T11:14:40;7.00;;;5.22;;
19026;SDS011;9646;52.034;5.554;2023-05-10T11:17:22;11.75;;;6.72;;
19026;SDS011;9646;52.034;5.554;2023-05-10T11:20:09;7.47;;;6.15;;
19026;SDS011;9646;52.034;5.554;2023-05-10T11:22:48;8.52;;;5.38;;
19026;SDS011;9646;52.034;5.554;2023-05-10T11:25:16;9.25;;;6.63;;
19026;SDS011;9646;52.034;5.554;2023-05-10T11:27:43;7.03;;;5.45;;
19026;SDS011;9646;52.034;5.554;2023-05-10T11:30:11;6.93;;;5.70;;
19026;SDS011;9646;52.034;5.554;2023-05-10T11:32:38;7.50;;;5.13;;
19026;SDS011;9646;52.034;5.554;2023-05-10T11:35:06;9.07;;;5.60;;
19026;SDS011;9646;52.034;5.554;2023-05-10T11:37:35;6.88;;;5.63;;
19026;SDS011;9646;52.034;5.554;2023-05-10T11:40:04;8.57;;;6.85;;
19026;SDS011;9646;52.034;5.554;2023-05-10T11:42:32;8.65;;;5.60;;
19026;SDS011;9646;52.034;5.554;2023-05-10T11:45:00;10.15;;;6.72;;
19026;SDS011;9646;52.034;5.554;2023-05-10T11:47:27;9.30;;;5.75;;
19026;SDS011;9646;52.034;5.554;2023-05-10T11:49:54;7.28;;;5.00;;
19026;SDS011;9646;52.034;5.554;2023-05-10T11:52:21;9.55;;;6.10;;
19026;SDS011;9646;52.034;5.554;2023-05-10T11:54:54;8.82;;;5.97;;
19026;SDS011;9646;52.034;5.554;2023-05-10T11:57:26;7.88;;;5.50;;
19026;SDS011;9646;52.034;5.554;2023-05-10T11:59:55;8.80;;;5.05;;
19026;SDS011;9646;52.034;5.554;2023-05-10T12:02:23;6.88;;;5.47;;
19026;SDS011;9646;52.034;5.554;2023-05-10T12:04:50;7.75;;;4.90;;
19026;SDS011;9646;52.034;5.554;2023-05-10T12:07:19;8.80;;;5.78;;
19026;SDS011;9646;52.034;5.554;2023-05-10T12:12:36;6.82;;;5.75;;
19026;SDS011;9646;52.034;5.554;2023-05-10T12:15:03;8.30;;;4.93;;
19026;SDS011;9646;52.034;5.554;2023-05-10T12:17:31;9.20;;;5.07;;
19026;SDS011;9646;52.034;5.554;2023-05-10T12:19:58;5.82;;;4.43;;
19026;SDS011;9646;52.034;5.554;2023-05-10T12:22:26;6.97;;;5.50;;
19026;SDS011;9646;52.034;5.554;2023-05-10T12:24:54;7.20;;;5.18;;
19026;SDS011;9646;52.034;5.554;2023-05-10T12:27:21;6.78;;;4.00;;
19026;SDS011;9646;52.034;5.554;2023-05-10T12:29:49;6.15;;;4.03;;
19026;SDS011;9646;52.034;5.554;2023-05-10T12:32:16;6.60;;;4.68;;
19026;SDS011;9646;52.034;5.554;2023-05-10T12:34:43;6.03;;;4.40;;
19026;SDS011;9646;52.034;5.554;2023-05-10T12:37:13;7.03;;;4.78;;
19026;SDS011;9646;52.034;5.554;2023-05-10T12:39:41;6.18;;;4.07;;
19026;SDS011;9646;52.034;5.554;2023-05-10T12:42:08;3.80;;;3.05;;
19026;SDS011;9646;52.034;5.554;2023-05-10T12:44:35;6.93;;;4.57;;
19026;SDS011;9646;52.034;5.554;2023-05-10T12:47:04;5.07;;;3.90;;
19026;SDS011;9646;52.034;5.554;2023-05-10T12:49:31;6.18;;;3.92;;
19026;SDS011;9646;52.034;5.554;2023-05-10T12:51:59;7.20;;;4.95;;
19026;SDS011;9646;52.034;5.554;2023-05-10T12:54:26;5.00;;;3.75;;
19026;SDS011;9646;52.034;5.554;2023-05-10T12:56:53;5.00;;;3.38;;
19026;SDS011;9646;52.034;5.554;2023-05-10T12:59:20;7.15;;;3.40;;
19026;SDS011;9646;52.034;5.554;2023-05-10T13:01:47;5.28;;;3.90;;
19026;SDS011;9646;52.034;5.554;2023-05-10T13:04:16;4.20;;;3.70;;
19026;SDS011;9646;52.034;5.554;2023-05-10T13:06:43;4.03;;;2.75;;
19026;SDS011;9646;52.034;5.554;2023-05-10T13:09:10;5.90;;;3.22;;
19026;SDS011;9646;52.034;5.554;2023-05-10T13:11:37;4.43;;;3.05;;
19026;SDS011;9646;52.034;5.554;2023-05-10T13:14:04;8.30;;;3.70;;
19026;SDS011;9646;52.034;5.554;2023-05-10T13:16:32;7.95;;;6.03;;
19026;SDS011;9646;52.034;5.554;2023-05-10T13:18:59;8.85;;;6.78;;
19026;SDS011;9646;52.034;5.554;2023-05-10T13:21:27;7.80;;;6.97;;
19026;SDS011;9646;52.034;5.554;2023-05-10T13:23:55;5.20;;;4.70;;
19026;SDS011;9646;52.034;5.554;2023-05-10T13:26:22;4.47;;;3.58;;
19026;SDS011;9646;52.034;5.554;2023-05-10T13:28:50;4.72;;;3.67;;
19026;SDS011;9646;52.034;5.554;2023-05-10T13:31:17;7.90;;;3.75;;
19026;SDS011;9646;52.034;5.554;2023-05-10T13:33:45;4.35;;;3.22;;
19026;SDS011;9646;52.034;5.554;2023-05-10T13:36:12;3.80;;;2.78;;
19026;SDS011;9646;52.034;5.554;2023-05-10T13:38:40;4.20;;;3.80;;
19026;SDS011;9646;52.034;5.554;2023-05-10T13:41:08;4.00;;;3.60;;
19026;SDS011;9646;52.034;5.554;2023-05-10T13:43:35;4.47;;;3.42;;
19026;SDS011;9646;52.034;5.554;2023-05-10T13:46:02;5.50;;;4.40;;
19026;SDS011;9646;52.034;5.554;2023-05-10T13:48:29;8.02;;;4.95;;
19026;SDS011;9646;52.034;5.554;2023-05-10T13:50:56;5.05;;;4.40;;
19026;SDS011;9646;52.034;5.554;2023-05-10T13:53:23;7.05;;;4.75;;
19026;SDS011;9646;52.034;5.554;2023-05-10T13:55:52;6.53;;;5.10;;
19026;SDS011;9646;52.034;5.554;2023-05-10T13:58:19;5.63;;;4.75;;
19026;SDS011;9646;52.034;5.554;2023-05-10T14:00:46;5.50;;;4.32;;
19026;SDS011;9646;52.034;5.554;2023-05-10T14:03:14;6.95;;;5.10;;
19026;SDS011;9646;52.034;5.554;2023-05-10T14:05:41;5.78;;;4.15;;
19026;SDS011;9646;52.034;5.554;2023-05-10T14:08:09;7.05;;;3.90;;
19026;SDS011;9646;52.034;5.554;2023-05-10T14:10:38;6.25;;;4.45;;
19026;SDS011;9646;52.034;5.554;2023-05-10T14:13:06;5.30;;;3.78;;
19026;SDS011;9646;52.034;5.554;2023-05-10T14:15:33;6.75;;;3.83;;
19026;SDS011;9646;52.034;5.554;2023-05-10T14:18:00;7.50;;;3.95;;
19026;SDS011;9646;52.034;5.554;2023-05-10T14:20:27;5.05;;;3.42;;
19026;SDS011;9646;52.034;5.554;2023-05-10T14:22:55;6.18;;;3.60;;
19026;SDS011;9646;52.034;5.554;2023-05-10T14:25:22;5.03;;;3.65;;
19026;SDS011;9646;52.034;5.554;2023-05-10T14:27:49;5.80;;;3.75;;
19026;SDS011;9646;52.034;5.554;2023-05-10T14:30:21;6.97;;;3.65;;
19026;SDS011;9646;52.034;5.554;2023-05-10T14:32:48;5.03;;;3.80;;
19026;SDS011;9646;52.034;5.554;2023-05-10T14:35:15;5.70;;;4.15;;
19026;SDS011;9646;52.034;5.554;2023-05-10T14:37:42;4.30;;;3.45;;
19026;SDS011;9646;52.034;5.554;2023-05-10T14:40:09;6.60;;;4.32;;
19026;SDS011;9646;52.034;5.554;2023-05-10T14:42:37;5.90;;;4.38;;
19026;SDS011;9646;52.034;5.554;2023-05-10T14:45:04;8.73;;;5.28;;
19026;SDS011;9646;52.034;5.554;2023-05-10T14:47:33;7.80;;;5.53;;
19026;SDS011;9646;52.034;5.554;2023-05-10T14:50:00;9.15;;;6.05;;
19026;SDS011;9646;52.034;5.554;2023-05-10T14:52:27;7.00;;;5.43;;
19026;SDS011;9646;52.034;5.554;2023-05-10T14:54:54;9.55;;;6.57;;
19026;SDS011;9646;52.034;5.554;2023-05-10T14:57:22;10.25;;;6.57;;
19026;SDS011;9646;52.034;5.554;2023-05-10T14:59:49;7.30;;;5.20;;
19026;SDS011;9646;52.034;5.554;2023-05-10T15:02:16;9.63;;;6.18;;
19026;SDS011;9646;52.034;5.554;2023-05-10T15:04:44;9.18;;;6.35;;